sensor_id;sensor_type;location;lat;lon;timestamp;pressure;altitude;pressure_sealevel;temperature;humidity
25855;BME280;13680;49.936;11.344;2023-05-13T00:01:21;96867.91;;;12.23;61.17
25855;BME280;13680;49.936;11.344;2023-05-13T00:03:47;96872.19;;;12.24;61.05
25855;BME280;13680;49.936;11.344;2023-05-13T00:06:12;96865.19;;;12.23;61.00
25855;BME280;13680;49.936;11.344;2023-05-13T00:08:37;96863.44;;;12.41;60.72
25855;BME280;13680;49.936;11.344;2023-05-13T00:11:03;96851.38;;;12.39;60.97
25855;BME280;13680;49.936;11.344;2023-05-13T00:13:28;96847.19;;;12.33;60.85
25855;BME280;13680;49.936;11.344;2023-05-13T00:15:53;96851.66;;;12.37;60.76
25855;BME280;13680;49.936;11.344;2023-05-13T00:18:19;96843.75;;;12.41;61.22
25855;BME280;13680;49.936;11.344;2023-05-13T00:20:44;96853.56;;;12.37;60.75
25855;BME280;13680;49.936;11.344;2023-05-13T00:23:09;96855.59;;;12.31;61.42
25855;BME280;13680;49.936;11.344;2023-05-13T00:25:36;96846.66;;;12.22;61.28
25855;BME280;13680;49.936;11.344;2023-05-13T00:28:01;96848.88;;;12.20;61.15
25855;BME280;13680;49.936;11.344;2023-05-13T00:30:27;96855.66;;;12.17;61.51
25855;BME280;13680;49.936;11.344;2023-05-13T00:32:52;96852.78;;;12.14;61.70
25855;BME280;13680;49.936;11.344;2023-05-13T00:35:17;96851.25;;;11.99;62.51
25855;BME280;13680;49.936;11.344;2023-05-13T00:37:43;96849.53;;;12.03;62.14
25855;BME280;13680;49.936;11.344;2023-05-13T00:40:19;96847.34;;;11.91;62.84
25855;BME280;13680;49.936;11.344;2023-05-13T00:42:45;96842.09;;;11.86;62.59
25855;BME280;13680;49.936;11.344;2023-05-13T00:45:11;96849.06;;;11.87;63.06
25855;BME280;13680;49.936;11.344;2023-05-13T00:47:38;96847.53;;;11.72;64.12
25855;BME280;13680;49.936;11.344;2023-05-13T00:50:04;96854.00;;;11.71;63.88
25855;BME280;13680;49.936;11.344;2023-05-13T00:52:30;96852.06;;;11.62;64.47
25855;BME280;13680;49.936;11.344;2023-05-13T00:54:56;96854.84;;;11.57;64.95
25855;BME280;13680;49.936;11.344;2023-05-13T00:57:22;96851.78;;;11.50;65.00
25855;BME280;13680;49.936;11.344;2023-05-13T00:59:47;96851.09;;;11.44;65.78
25855;BME280;13680;49.936;11.344;2023-05-13T01:05:29;96849.09;;;11.36;64.91
25855;BME280;13680;49.936;11.344;2023-05-13T01:10:46;96845.78;;;11.53;65.35
25855;BME280;13680;49.936;11.344;2023-05-13T01:13:17;96843.91;;;11.40;65.39
25855;BME280;13680;49.936;11.344;2023-05-13T01:15:52;96846.50;;;11.45;65.37
25855;BME280;13680;49.936;11.344;2023-05-13T01:18:25;96848.50;;;11.53;65.57
25855;BME280;13680;49.936;11.344;2023-05-13T01:20:52;96849.38;;;11.49;65.82
25855;BME280;13680;49.936;11.344;2023-05-13T01:23:18;96850.38;;;11.53;65.27
25855;BME280;13680;49.936;11.344;2023-05-13T01:25:43;96849.97;;;11.45;64.25
25855;BME280;13680;49.936;11.344;2023-05-13T01:28:09;96848.06;;;11.60;64.25
25855;BME280;13680;49.936;11.344;2023-05-13T01:30:35;96847.56;;;11.58;64.06
25855;BME280;13680;49.936;11.344;2023-05-13T01:33:01;96854.00;;;11.71;63.78
25855;BME280;13680;49.936;11.344;2023-05-13T01:35:27;96836.19;;;11.84;63.01
25855;BME280;13680;49.936;11.344;2023-05-13T01:37:56;96841.19;;;11.90;63.25
25855;BME280;13680;49.936;11.344;2023-05-13T01:40:21;96845.94;;;11.93;62.67
25855;BME280;13680;49.936;11.344;2023-05-13T01:42:47;96839.97;;;11.97;62.53
25855;BME280;13680;49.936;11.344;2023-05-13T01:45:13;96839.75;;;12.07;62.76
25855;BME280;13680;49.936;11.344;2023-05-13T01:47:38;96835.84;;;12.22;61.84
25855;BME280;13680;49.936;11.344;2023-05-13T01:50:04;96843.03;;;12.26;61.66
25855;BME280;13680;49.936;11.344;2023-05-13T01:52:29;96837.59;;;12.18;61.61
25855;BME280;13680;49.936;11.344;2023-05-13T01:54:55;96840.56;;;11.93;62.25
25855;BME280;13680;49.936;11.344;2023-05-13T01:57:20;96843.53;;;12.28;61.49
25855;BME280;13680;49.936;11.344;2023-05-13T01:59:46;96842.91;;;12.09;62.21
25855;BME280;13680;49.936;11.344;2023-05-13T02:02:11;96842.56;;;12.02;62.12
25855;BME280;13680;49.936;11.344;2023-05-13T02:04:36;96846.34;;;12.01;62.39
25855;BME280;13680;49.936;11.344;2023-05-13T02:07:02;96853.94;;;12.21;61.89
25855;BME280;13680;49.936;11.344;2023-05-13T02:09:27;96841.81;;;12.33;61.21
25855;BME280;13680;49.936;11.344;2023-05-13T02:11:52;96838.50;;;12.13;61.46
25855;BME280;13680;49.936;11.344;2023-05-13T02:14:18;96834.75;;;12.23;61.53
25855;BME280;13680;49.936;11.344;2023-05-13T02:16:43;96836.34;;;12.24;60.93
25855;BME280;13680;49.936;11.344;2023-05-13T02:19:08;96840.97;;;12.01;61.38
25855;BME280;13680;49.936;11.344;2023-05-13T02:21:34;96836.94;;;12.12;61.50
25855;BME280;13680;49.936;11.344;2023-05-13T02:23:59;96840.09;;;12.14;61.25
25855;BME280;13680;49.936;11.344;2023-05-13T02:26:24;96833.09;;;11.90;61.71
25855;BME280;13680;49.936;11.344;2023-05-13T02:28:50;96836.31;;;12.15;61.63
25855;BME280;13680;49.936;11.344;2023-05-13T02:31:15;96835.31;;;12.34;60.83
25855;BME280;13680;49.936;11.344;2023-05-13T02:33:41;96826.50;;;12.19;61.18
25855;BME280;13680;49.936;11.344;2023-05-13T02:36:06;96827.00;;;11.99;61.78
25855;BME280;13680;49.936;11.344;2023-05-13T02:38:31;96825.91;;;12.00;62.08
25855;BME280;13680;49.936;11.344;2023-05-13T02:40:57;96840.16;;;12.00;61.92
25855;BME280;13680;49.936;11.344;2023-05-13T02:43:22;96832.31;;;12.13;62.00
25855;BME280;13680;49.936;11.344;2023-05-13T02:45:49;96834.19;;;11.89;61.95
25855;BME280;13680;49.936;11.344;2023-05-13T02:48:14;96835.16;;;12.07;62.09
25855;BME280;13680;49.936;11.344;2023-05-13T02:50:40;96837.06;;;12.07;61.36
25855;BME280;13680;49.936;11.344;2023-05-13T02:53:05;96833.09;;;12.13;61.84
25855;BME280;13680;49.936;11.344;2023-05-13T02:55:31;96839.13;;;12.10;61.60
25855;BME280;13680;49.936;11.344;2023-05-13T02:57:56;96836.06;;;12.03;62.10
25855;BME280;13680;49.936;11.344;2023-05-13T03:00:21;96831.97;;;11.91;62.18
25855;BME280;13680;49.936;11.344;2023-05-13T03:02:47;96833.00;;;11.95;62.55
25855;BME280;13680;49.936;11.344;2023-05-13T03:05:12;96834.28;;;11.98;62.19
25855;BME280;13680;49.936;11.344;2023-05-13T03:07:37;96830.91;;;12.15;61.35
25855;BME280;13680;49.936;11.344;2023-05-13T03:10:03;96832.97;;;12.18;61.51
25855;BME280;13680;49.936;11.344;2023-05-13T03:12:29;96842.56;;;12.02;62.22
25855;BME280;13680;49.936;11.344;2023-05-13T03:14:54;96839.75;;;12.07;62.27
25855;BME280;13680;49.936;11.344;2023-05-13T03:17:19;96835.91;;;12.31;61.25
25855;BME280;13680;49.936;11.344;2023-05-13T03:19:45;96835.78;;;12.36;60.99
25855;BME280;13680;49.936;11.344;2023-05-13T03:22:10;96841.72;;;12.47;60.65
25855;BME280;13680;49.936;11.344;2023-05-13T03:24:35;96842.38;;;12.52;60.92
25855;BME280;13680;49.936;11.344;2023-05-13T03:27:01;96838.84;;;12.43;61.01
25855;BME280;13680;49.936;11.344;2023-05-13T03:29:26;96843.41;;;12.34;60.91
25855;BME280;13680;49.936;11.344;2023-05-13T03:31:52;96847.81;;;12.30;60.62
25855;BME280;13680;49.936;11.344;2023-05-13T03:34:17;96849.34;;;12.22;61.41
25855;BME280;13680;49.936;11.344;2023-05-13T03:36:42;96843.75;;;12.41;60.75
25855;BME280;13680;49.936;11.344;2023-05-13T03:39:08;96852.72;;;12.27;61.03
25855;BME280;13680;49.936;11.344;2023-05-13T03:41:34;96852.78;;;12.36;61.20
25855;BME280;13680;49.936;11.344;2023-05-13T03:44:00;96851.84;;;12.41;61.16
25855;BME280;13680;49.936;11.344;2023-05-13T03:46:25;96847.25;;;12.41;60.68
25855;BME280;13680;49.936;11.344;2023-05-13T03:48:54;96864.91;;;12.25;61.53
25855;BME280;13680;49.936;11.344;2023-05-13T03:51:20;96851.94;;;12.04;62.69
25855;BME280;13680;49.936;11.344;2023-05-13T03:53:46;96857.94;;;12.01;62.58
25855;BME280;13680;49.936;11.344;2023-05-13T03:56:12;96857.50;;;12.08;61.79
25855;BME280;13680;49.936;11.344;2023-05-13T03:58:37;96862.16;;;12.16;61.69
25855;BME280;13680;49.936;11.344;2023-05-13T04:01:03;96865.19;;;12.23;61.13
25855;BME280;13680;49.936;11.344;2023-05-13T04:03:28;96870.06;;;12.13;61.90
25855;BME280;13680;49.936;11.344;2023-05-13T04:05:55;96875.94;;;12.15;61.72
25855;BME280;13680;49.936;11.344;2023-05-13T04:08:20;96866.31;;;12.22;61.54
25855;BME280;13680;49.936;11.344;2023-05-13T04:10:45;96870.25;;;12.16;61.99
25855;BME280;13680;49.936;11.344;2023-05-13T04:13:11;96872.94;;;12.16;61.81
25855;BME280;13680;49.936;11.344;2023-05-13T04:15:36;96871.28;;;12.06;62.09
25855;BME280;13680;49.936;11.344;2023-05-13T04:18:01;96873.66;;;12.08;62.33
25855;BME280;13680;49.936;11.344;2023-05-13T04:20:27;96866.56;;;12.12;62.32
25855;BME280;13680;49.936;11.344;2023-05-13T04:22:53;96870.69;;;12.09;62.44
25855;BME280;13680;49.936;11.344;2023-05-13T04:25:18;96880.19;;;12.07;62.96
25855;BME280;13680;49.936;11.344;2023-05-13T04:27:44;96871.09;;;12.03;62.93
25855;BME280;13680;49.936;11.344;2023-05-13T04:30:11;96884.28;;;12.04;62.90
25855;BME280;13680;49.936;11.344;2023-05-13T04:32:38;96888.06;;;12.03;63.10
25855;BME280;13680;49.936;11.344;2023-05-13T04:35:05;96890.47;;;12.05;63.05
25855;BME280;13680;49.936;11.344;2023-05-13T04:37:30;96892.66;;;12.03;63.80
25855;BME280;13680;49.936;11.344;2023-05-13T04:39:58;96899.31;;;12.05;63.68
25855;BME280;13680;49.936;11.344;2023-05-13T04:42:23;96901.25;;;12.05;64.17
25855;BME280;13680;49.936;11.344;2023-05-13T04:44:49;96903.94;;;12.05;64.17
25855;BME280;13680;49.936;11.344;2023-05-13T04:47:14;96908.81;;;12.03;64.24
25855;BME280;13680;49.936;11.344;2023-05-13T04:49:39;96903.31;;;12.08;64.53
25855;BME280;13680;49.936;11.344;2023-05-13T04:52:05;96907.00;;;12.12;64.72
25855;BME280;13680;49.936;11.344;2023-05-13T04:54:30;96908.53;;;12.27;64.94
25855;BME280;13680;49.936;11.344;2023-05-13T04:56:56;96903.75;;;12.47;64.79
25855;BME280;13680;49.936;11.344;2023-05-13T04:59:21;96903.00;;;12.55;64.61
25855;BME280;13680;49.936;11.344;2023-05-13T05:01:47;96906.13;;;12.71;64.84
25855;BME280;13680;49.936;11.344;2023-05-13T05:04:13;96902.06;;;12.82;64.32
25855;BME280;13680;49.936;11.344;2023-05-13T05:06:38;96907.50;;;13.00;64.51
25855;BME280;13680;49.936;11.344;2023-05-13T05:09:03;96912.81;;;13.14;63.87
25855;BME280;13680;49.936;11.344;2023-05-13T05:11:29;96905.53;;;13.14;64.00
25855;BME280;13680;49.936;11.344;2023-05-13T05:13:54;96911.22;;;13.13;64.48
25855;BME280;13680;49.936;11.344;2023-05-13T05:16:20;96909.53;;;13.25;64.37
25855;BME280;13680;49.936;11.344;2023-05-13T05:18:45;96915.25;;;13.33;64.00
25855;BME280;13680;49.936;11.344;2023-05-13T05:21:11;96916.44;;;13.49;63.08
25855;BME280;13680;49.936;11.344;2023-05-13T05:23:36;96912.34;;;13.69;62.33
25855;BME280;13680;49.936;11.344;2023-05-13T05:26:02;96920.19;;;13.88;61.36
25855;BME280;13680;49.936;11.344;2023-05-13T05:28:28;96916.34;;;14.07;59.97
25855;BME280;13680;49.936;11.344;2023-05-13T05:30:53;96916.84;;;14.09;60.17
25855;BME280;13680;49.936;11.344;2023-05-13T05:33:19;96918.75;;;14.26;59.58
25855;BME280;13680;49.936;11.344;2023-05-13T05:35:44;96921.44;;;14.44;59.42
25855;BME280;13680;49.936;11.344;2023-05-13T05:38:10;96926.50;;;14.63;59.05
25855;BME280;13680;49.936;11.344;2023-05-13T05:40:42;96922.53;;;14.69;58.13
25855;BME280;13680;49.936;11.344;2023-05-13T05:43:07;96928.44;;;14.53;57.90
25855;BME280;13680;49.936;11.344;2023-05-13T05:45:38;96922.09;;;14.14;58.75
25855;BME280;13680;49.936;11.344;2023-05-13T05:48:04;96929.88;;;14.33;58.55
25855;BME280;13680;49.936;11.344;2023-05-13T05:50:31;96923.69;;;14.33;57.71
25855;BME280;13680;49.936;11.344;2023-05-13T05:52:56;96926.56;;;14.28;58.55
25855;BME280;13680;49.936;11.344;2023-05-13T05:55:23;96931.59;;;14.55;57.72
25855;BME280;13680;49.936;11.344;2023-05-13T05:57:49;96930.31;;;14.79;57.13
25855;BME280;13680;49.936;11.344;2023-05-13T06:00:15;96935.72;;;14.79;57.38
25855;BME280;13680;49.936;11.344;2023-05-13T06:02:41;96934.50;;;14.42;56.23
25855;BME280;13680;49.936;11.344;2023-05-13T06:05:07;96934.97;;;14.35;56.35
25855;BME280;13680;49.936;11.344;2023-05-13T06:07:32;96928.44;;;14.18;57.40
25855;BME280;13680;49.936;11.344;2023-05-13T06:09:57;96928.28;;;14.15;57.60
25855;BME280;13680;49.936;11.344;2023-05-13T06:12:23;96940.22;;;14.05;57.28
25855;BME280;13680;49.936;11.344;2023-05-13T06:14:49;96935.78;;;14.27;55.78
25855;BME280;13680;49.936;11.344;2023-05-13T06:17:14;96934.50;;;14.15;57.18
25855;BME280;13680;49.936;11.344;2023-05-13T06:19:40;96936.09;;;14.07;57.59
25855;BME280;13680;49.936;11.344;2023-05-13T06:22:09;96941.81;;;14.23;57.75
25855;BME280;13680;49.936;11.344;2023-05-13T06:24:35;96940.69;;;14.07;58.00
25855;BME280;13680;49.936;11.344;2023-05-13T06:27:01;96934.97;;;14.26;57.51
25855;BME280;13680;49.936;11.344;2023-05-13T06:29:27;96935.78;;;14.27;58.23
25855;BME280;13680;49.936;11.344;2023-05-13T06:31:52;96943.56;;;14.28;57.59
25855;BME280;13680;49.936;11.344;2023-05-13T06:34:18;96936.88;;;14.34;57.96
25855;BME280;13680;49.936;11.344;2023-05-13T06:36:43;96945.47;;;14.36;57.80
25855;BME280;13680;49.936;11.344;2023-05-13T06:39:09;96948.81;;;14.42;58.28
25855;BME280;13680;49.936;11.344;2023-05-13T06:41:38;96948.03;;;14.42;57.41
25855;BME280;13680;49.936;11.344;2023-05-13T06:44:04;96939.91;;;14.24;58.01
25855;BME280;13680;49.936;11.344;2023-05-13T06:46:30;96946.59;;;14.44;58.43
25855;BME280;13680;49.936;11.344;2023-05-13T06:48:56;96942.91;;;14.40;58.07
25855;BME280;13680;49.936;11.344;2023-05-13T06:51:23;96941.47;;;14.51;57.14
25855;BME280;13680;49.936;11.344;2023-05-13T06:53:48;96942.31;;;14.34;56.53
25855;BME280;13680;49.936;11.344;2023-05-13T06:56:14;96943.41;;;14.42;57.75
25855;BME280;13680;49.936;11.344;2023-05-13T06:58:39;96941.31;;;14.56;57.62
25855;BME280;13680;49.936;11.344;2023-05-13T07:01:04;96949.91;;;14.59;57.52
25855;BME280;13680;49.936;11.344;2023-05-13T07:03:30;96943.69;;;14.58;58.80
25855;BME280;13680;49.936;11.344;2023-05-13T07:05:55;96938.59;;;14.56;58.97
25855;BME280;13680;49.936;11.344;2023-05-13T07:08:21;96950.88;;;14.54;57.76
25855;BME280;13680;49.936;11.344;2023-05-13T07:10:46;96947.72;;;14.52;58.18
25855;BME280;13680;49.936;11.344;2023-05-13T07:13:12;96941.66;;;14.37;58.56
25855;BME280;13680;49.936;11.344;2023-05-13T07:15:37;96944.00;;;14.56;58.24
25855;BME280;13680;49.936;11.344;2023-05-13T07:18:03;96938.47;;;14.44;58.70
25855;BME280;13680;49.936;11.344;2023-05-13T07:20:28;96941.16;;;14.53;58.13
25855;BME280;13680;49.936;11.344;2023-05-13T07:22:54;96947.22;;;14.59;57.83
25855;BME280;13680;49.936;11.344;2023-05-13T07:25:19;96943.09;;;14.44;58.29
25855;BME280;13680;49.936;11.344;2023-05-13T07:27:45;96948.16;;;14.45;58.48
25855;BME280;13680;49.936;11.344;2023-05-13T07:30:10;96943.69;;;14.58;58.30
25855;BME280;13680;49.936;11.344;2023-05-13T07:32:37;96942.75;;;14.63;58.20
25855;BME280;13680;49.936;11.344;2023-05-13T07:35:03;96942.59;;;14.77;58.45
25855;BME280;13680;49.936;11.344;2023-05-13T07:37:28;96939.53;;;14.87;57.85
25855;BME280;13680;49.936;11.344;2023-05-13T07:39:54;96942.41;;;14.91;57.92
25855;BME280;13680;49.936;11.344;2023-05-13T07:42:19;96942.41;;;14.82;58.39
25855;BME280;13680;49.936;11.344;2023-05-13T07:44:44;96938.75;;;14.86;57.87
25855;BME280;13680;49.936;11.344;2023-05-13T07:47:10;96941.75;;;14.94;58.23
25855;BME280;13680;49.936;11.344;2023-05-13T07:49:37;96934.84;;;15.05;57.83
25855;BME280;13680;49.936;11.344;2023-05-13T07:52:02;96938.66;;;15.13;57.56
25855;BME280;13680;49.936;11.344;2023-05-13T07:54:27;96941.28;;;15.60;57.40
25855;BME280;13680;49.936;11.344;2023-05-13T07:56:53;96936.31;;;15.71;55.57
25855;BME280;13680;49.936;11.344;2023-05-13T07:59:18;96936.31;;;15.71;55.78
25855;BME280;13680;49.936;11.344;2023-05-13T08:01:44;96940.66;;;15.93;55.95
25855;BME280;13680;49.936;11.344;2023-05-13T08:04:09;96940.59;;;16.23;56.09
25855;BME280;13680;49.936;11.344;2023-05-13T08:06:35;96931.63;;;16.65;53.54
25855;BME280;13680;49.936;11.344;2023-05-13T08:09:00;96937.53;;;16.46;53.48
25855;BME280;13680;49.936;11.344;2023-05-13T08:11:26;96930.53;;;16.45;55.40
25855;BME280;13680;49.936;11.344;2023-05-13T08:13:52;96924.41;;;16.48;54.50
25855;BME280;13680;49.936;11.344;2023-05-13T08:16:17;96922.69;;;17.10;52.61
25855;BME280;13680;49.936;11.344;2023-05-13T08:18:42;96925.16;;;17.15;52.26
25855;BME280;13680;49.936;11.344;2023-05-13T08:21:08;96920.13;;;16.80;52.70
25855;BME280;13680;49.936;11.344;2023-05-13T08:23:35;96925.66;;;16.84;53.68
25855;BME280;13680;49.936;11.344;2023-05-13T08:26:00;96921.72;;;16.81;53.47
25855;BME280;13680;49.936;11.344;2023-05-13T08:28:26;96923.97;;;17.38;51.52
25855;BME280;13680;49.936;11.344;2023-05-13T08:30:53;96928.25;;;17.51;50.56
25855;BME280;13680;49.936;11.344;2023-05-13T08:33:18;96923.38;;;17.94;49.26
25855;BME280;13680;49.936;11.344;2023-05-13T08:35:44;96921.69;;;18.18;49.80
25855;BME280;13680;49.936;11.344;2023-05-13T08:38:09;96925.03;;;17.98;51.43
25855;BME280;13680;49.936;11.344;2023-05-13T08:40:34;96924.63;;;17.47;51.66
25855;BME280;13680;49.936;11.344;2023-05-13T08:43:00;96916.63;;;18.04;50.00
25855;BME280;13680;49.936;11.344;2023-05-13T08:45:28;96916.09;;;18.55;49.29
25855;BME280;13680;49.936;11.344;2023-05-13T08:47:57;96925.72;;;18.08;49.45
25855;BME280;13680;49.936;11.344;2023-05-13T08:50:24;96919.91;;;18.09;50.16
25855;BME280;13680;49.936;11.344;2023-05-13T08:52:51;96912.06;;;18.48;48.20
25855;BME280;13680;49.936;11.344;2023-05-13T08:55:18;96911.31;;;18.36;48.98
25855;BME280;13680;49.936;11.344;2023-05-13T08:57:44;96920.25;;;18.48;49.55
25855;BME280;13680;49.936;11.344;2023-05-13T09:00:10;96923.78;;;18.65;48.79
25855;BME280;13680;49.936;11.344;2023-05-13T09:02:35;96934.31;;;18.10;49.22
25855;BME280;13680;49.936;11.344;2023-05-13T09:05:04;96911.16;;;18.44;48.00
25855;BME280;13680;49.936;11.344;2023-05-13T09:07:34;96918.56;;;18.60;47.00
25855;BME280;13680;49.936;11.344;2023-05-13T09:09:59;96919.28;;;19.17;46.55
25855;BME280;13680;49.936;11.344;2023-05-13T09:12:47;96922.19;;;19.24;46.09
25855;BME280;13680;49.936;11.344;2023-05-13T09:15:15;96911.19;;;19.21;46.19
25855;BME280;13680;49.936;11.344;2023-05-13T09:17:50;96915.34;;;19.30;46.19
25855;BME280;13680;49.936;11.344;2023-05-13T09:20:17;96917.72;;;19.00;45.85
25855;BME280;13680;49.936;11.344;2023-05-13T09:22:51;96926.66;;;19.01;46.94
25855;BME280;13680;49.936;11.344;2023-05-13T09:25:18;96913.41;;;18.99;46.84
25855;BME280;13680;49.936;11.344;2023-05-13T09:27:49;96914.22;;;19.00;47.23
25855;BME280;13680;49.936;11.344;2023-05-13T09:30:14;96924.28;;;18.26;49.58
25855;BME280;13680;49.936;11.344;2023-05-13T09:32:40;96922.31;;;18.84;46.88
25855;BME280;13680;49.936;11.344;2023-05-13T09:35:14;96913.22;;;19.08;45.90
25855;BME280;13680;49.936;11.344;2023-05-13T09:37:43;96916.84;;;19.79;44.61
25855;BME280;13680;49.936;11.344;2023-05-13T09:40:11;96913.59;;;19.06;45.03
25855;BME280;13680;49.936;11.344;2023-05-13T09:42:39;96921.03;;;19.41;45.65
25855;BME280;13680;49.936;11.344;2023-05-13T09:45:06;96913.41;;;19.31;44.81
25855;BME280;13680;49.936;11.344;2023-05-13T09:47:31;96916.06;;;19.11;47.02
25855;BME280;13680;49.936;11.344;2023-05-13T09:50:00;96922.41;;;18.87;45.21
25855;BME280;13680;49.936;11.344;2023-05-13T09:52:28;96922.38;;;18.27;47.12
25855;BME280;13680;49.936;11.344;2023-05-13T09:54:56;96936.22;;;18.50;46.95
25855;BME280;13680;49.936;11.344;2023-05-13T09:57:22;96925.44;;;18.54;47.13
25855;BME280;13680;49.936;11.344;2023-05-13T09:59:47;96925.72;;;18.64;46.88
25855;BME280;13680;49.936;11.344;2023-05-13T10:02:14;96929.66;;;18.67;47.43
25855;BME280;13680;49.936;11.344;2023-05-13T10:04:41;96935.72;;;18.60;47.36
25855;BME280;13680;49.936;11.344;2023-05-13T10:07:07;96943.19;;;18.35;47.31
25855;BME280;13680;49.936;11.344;2023-05-13T10:09:34;96934.25;;;17.94;47.14
25855;BME280;13680;49.936;11.344;2023-05-13T10:12:02;96944.53;;;18.01;48.75
25855;BME280;13680;49.936;11.344;2023-05-13T10:14:28;96942.94;;;17.87;47.70
25855;BME280;13680;49.936;11.344;2023-05-13T10:16:55;96941.19;;;18.32;47.18
25855;BME280;13680;49.936;11.344;2023-05-13T10:19:23;96938.06;;;17.80;48.33
25855;BME280;13680;49.936;11.344;2023-05-13T10:21:51;96944.53;;;17.76;49.07
25855;BME280;13680;49.936;11.344;2023-05-13T10:24:17;96943.28;;;17.73;48.15
25855;BME280;13680;49.936;11.344;2023-05-13T10:26:44;96935.47;;;17.72;49.02
25855;BME280;13680;49.936;11.344;2023-05-13T10:29:10;96937.16;;;18.01;48.13
25855;BME280;13680;49.936;11.344;2023-05-13T10:31:36;96940.91;;;17.72;47.79
25855;BME280;13680;49.936;11.344;2023-05-13T10:34:02;96941.03;;;17.75;48.77
25855;BME280;13680;49.936;11.344;2023-05-13T10:39:43;96941.22;;;18.07;49.00
25855;BME280;13680;49.936;11.344;2023-05-13T10:42:26;96944.41;;;17.84;48.49
25855;BME280;13680;49.936;11.344;2023-05-13T10:44:57;96935.25;;;18.02;48.63
25855;BME280;13680;49.936;11.344;2023-05-13T10:47:22;96936.13;;;18.06;49.62
25855;BME280;13680;49.936;11.344;2023-05-13T10:49:51;96943.44;;;18.30;49.71
25855;BME280;13680;49.936;11.344;2023-05-13T10:52:17;96938.84;;;18.06;49.33
25855;BME280;13680;49.936;11.344;2023-05-13T10:54:42;96940.25;;;17.75;50.16
25855;BME280;13680;49.936;11.344;2023-05-13T10:57:08;96937.63;;;17.16;50.81
25855;BME280;13680;49.936;11.344;2023-05-13T10:59:34;96946.03;;;17.61;50.38
25855;BME280;13680;49.936;11.344;2023-05-13T11:02:02;96943.19;;;17.45;50.90
25855;BME280;13680;49.936;11.344;2023-05-13T11:04:57;96951.56;;;17.27;51.23
25855;BME280;13680;49.936;11.344;2023-05-13T11:07:27;96952.13;;;17.58;49.83
25855;BME280;13680;49.936;11.344;2023-05-13T11:09:53;96949.09;;;17.59;49.96
25855;BME280;13680;49.936;11.344;2023-05-13T11:12:18;96955.63;;;17.71;50.53
25855;BME280;13680;49.936;11.344;2023-05-13T11:14:44;96960.31;;;17.82;49.84
25855;BME280;13680;49.936;11.344;2023-05-13T11:17:10;96963.72;;;17.55;51.15
25855;BME280;13680;49.936;11.344;2023-05-13T11:19:37;96970.16;;;16.58;53.05
25855;BME280;13680;49.936;11.344;2023-05-13T11:24:37;96966.13;;;16.98;53.76
25855;BME280;13680;49.936;11.344;2023-05-13T11:27:19;96958.28;;;17.30;52.84
25855;BME280;13680;49.936;11.344;2023-05-13T11:29:49;96966.38;;;17.05;53.15
25855;BME280;13680;49.936;11.344;2023-05-13T11:35:31;96954.63;;;17.13;52.92
25855;BME280;13680;49.936;11.344;2023-05-13T11:37:58;96962.56;;;17.56;52.04
25855;BME280;13680;49.936;11.344;2023-05-13T11:42:51;96953.50;;;17.27;52.10
25855;BME280;13680;49.936;11.344;2023-05-13T11:45:17;96951.69;;;17.80;51.57
25855;BME280;13680;49.936;11.344;2023-05-13T11:47:43;96946.47;;;17.75;51.10
25855;BME280;13680;49.936;11.344;2023-05-13T11:50:22;96952.59;;;17.72;50.57
25855;BME280;13680;49.936;11.344;2023-05-13T11:52:56;96958.03;;;17.60;51.17
25855;BME280;13680;49.936;11.344;2023-05-13T11:55:32;96949.66;;;17.65;50.86
25855;BME280;13680;49.936;11.344;2023-05-13T11:57:59;96954.88;;;17.70;50.83
25855;BME280;13680;49.936;11.344;2023-05-13T12:00:29;96952.59;;;17.47;51.12
25855;BME280;13680;49.936;11.344;2023-05-13T12:02:56;96946.25;;;17.43;51.43
25855;BME280;13680;49.936;11.344;2023-05-13T12:05:22;96951.16;;;18.28;50.96
25855;BME280;13680;49.936;11.344;2023-05-13T12:07:47;96953.69;;;18.08;49.45
25855;BME280;13680;49.936;11.344;2023-05-13T12:10:13;96958.44;;;18.11;50.19
25855;BME280;13680;49.936;11.344;2023-05-13T12:12:41;96952.94;;;17.58;50.18
25855;BME280;13680;49.936;11.344;2023-05-13T12:15:09;96955.06;;;18.14;50.37
25855;BME280;13680;49.936;11.344;2023-05-13T12:17:35;96944.38;;;18.78;50.05
25855;BME280;13680;49.936;11.344;2023-05-13T12:20:09;96953.38;;;17.97;50.68
25855;BME280;13680;49.936;11.344;2023-05-13T12:22:55;96953.97;;;18.31;49.47
25855;BME280;13680;49.936;11.344;2023-05-13T12:25:41;96959.38;;;18.15;50.43
25855;BME280;13680;49.936;11.344;2023-05-13T12:28:15;96952.84;;;18.32;49.92
25855;BME280;13680;49.936;11.344;2023-05-13T12:30:56;96953.88;;;18.28;50.95
25855;BME280;13680;49.936;11.344;2023-05-13T12:33:23;96948.56;;;19.04;49.79
25855;BME280;13680;49.936;11.344;2023-05-13T12:35:52;96946.50;;;18.85;48.81
25855;BME280;13680;49.936;11.344;2023-05-13T12:38:22;96956.03;;;18.63;49.54
25855;BME280;13680;49.936;11.344;2023-05-13T12:40:49;96961.97;;;18.53;49.81
25855;BME280;13680;49.936;11.344;2023-05-13T12:43:17;96965.81;;;18.23;50.72
25855;BME280;13680;49.936;11.344;2023-05-13T12:45:44;96965.69;;;18.32;50.75
25855;BME280;13680;49.936;11.344;2023-05-13T12:48:13;96975.03;;;17.69;51.50
25855;BME280;13680;49.936;11.344;2023-05-13T12:50:39;96980.69;;;17.51;52.40
25855;BME280;13680;49.936;11.344;2023-05-13T12:53:05;96984.00;;;17.94;51.03
25855;BME280;13680;49.936;11.344;2023-05-13T12:55:30;96979.47;;;17.03;53.83
25855;BME280;13680;49.936;11.344;2023-05-13T12:58:00;96983.63;;;17.34;53.17
25855;BME280;13680;49.936;11.344;2023-05-13T13:00:26;96982.25;;;17.28;52.82
25855;BME280;13680;49.936;11.344;2023-05-13T13:02:52;96979.56;;;17.40;52.72
25855;BME280;13680;49.936;11.344;2023-05-13T13:05:25;96978.16;;;17.22;51.61